ADDS METAR Data INFO
IDs: Format: Raw Decoded Include TAF

Data at: 2318 UTC 15 Jul 2018

KCFS 152315Z AUTO 09006KT 10SM SCT055 BKN070 29/21 A2994 RMK AO2 T02890211
KCFS 152255Z AUTO 08005KT 10SM SCT055 30/21 A2994 RMK AO2 T02950210
KCFS 152235Z AUTO 00000KT 10SM CLR 32/18 A2993 RMK AO2 T03200182
KCFS 152215Z AUTO 29005KT 10SM CLR 33/19 A2994 RMK AO2 T03280185
KCFS 152155Z AUTO 30004KT 10SM SCT050 SCT090 32/19 A2994 RMK AO2 T03210191
KCFS 152135Z AUTO 27006KT 10SM SCT100 33/19 A2994 RMK AO2 T03270190
KCFS 152115Z AUTO 30007KT 10SM SCT050 SCT090 32/19 A2995 RMK AO2 T03230192
KCFS 152055Z AUTO 29006KT 10SM SCT065 32/19 A2996 RMK AO2 T03160190
KCFS 152035Z AUTO 29006KT 10SM SCT050 SCT065 32/19 A2996 RMK AO2 T03170189
KCFS 152015Z AUTO 25007KT 10SM SCT050 SCT065 33/19 A2997 RMK AO2 T03320191
KCFS 151955Z AUTO 27006KT 10SM SCT050 SCT060 33/19 A2997 RMK AO2 T03320186
KCFS 151935Z AUTO 26006KT 10SM SCT050 SCT075 32/19 A2997 RMK AO2 T03180187
KCFS 151916Z AUTO 25008KT 10SM SCT050 SCT055 SCT075 31/19 A2997 RMK AO2 T03140191
KCFS 151855Z AUTO 25003KT 10SM SCT048 31/18 A2998 RMK AO2 T03110181
KCFS 151835Z AUTO 00000KT 10SM SCT044 BKN050 31/19 A2998 RMK AO2 T03100188
KCFS 151815Z AUTO 00000KT 10SM BKN044 BKN060 31/20 A2998 RMK AO2 T03060195
KCFS 151755Z AUTO 25003KT 10SM SCT040 BKN050 BKN060 32/20 A2998 RMK AO2 T03160203 10316 20216
KCFS 151735Z AUTO 00000KT 10SM SCT040 BKN050 BKN060 29/20 A2999 RMK AO2 T02890197
KCFS 151715Z AUTO 27004KT 10SM SCT039 SCT046 30/20 A2999 RMK AO2 T03020199
KCFS 151655Z AUTO 00000KT 10SM SCT039 BKN048 31/20 A2999 RMK AO2 T03050202
KCFS 151635Z AUTO 00000KT 10SM SCT035 BKN042 BKN050 30/20 A3000 RMK AO2 T02950197
KCFS 151615Z AUTO 00000KT 10SM SCT033 29/20 A3000 RMK AO2 T02850197
KCFS 151555Z AUTO 00000KT 10SM CLR 29/20 A3000 RMK AO2 T02910200
KCFS 151535Z AUTO 26003KT 10SM CLR 30/20 A3000 RMK AO2 T02950199
KCFS 151515Z AUTO 29003KT 10SM CLR 29/21 A3000 RMK AO2 T02880209
KCFS 151455Z AUTO 00000KT 10SM CLR 28/21 A3000 RMK AO2 T02810208
KCFS 151435Z AUTO 00000KT 10SM CLR 28/21 A3001 RMK AO2 T02790205
KCFS 151415Z AUTO 00000KT 10SM CLR 26/21 A3001 RMK AO2 T02630211
KCFS 151355Z AUTO 00000KT 10SM SCT007 26/21 A3002 RMK AO2 T02570212
KCFS 151335Z AUTO 00000KT 10SM SCT007 25/21 A3002 RMK AO2 T02510212
KCFS 151315Z AUTO 00000KT 7SM SCT005 25/21 A3002 RMK AO2 T02460210
KCFS 151255Z AUTO 25003KT 10SM OVC005 24/21 A3003 RMK AO2 T02350208
KCFS 151235Z AUTO 22003KT 10SM BKN005 23/21 A3002 RMK AO2 T02290206
KCFS 151215Z AUTO 00000KT 7SM CLR 22/20 A3002 RMK AO2 T02220201
KCFS 151155Z AUTO 00000KT 5SM BR CLR 21/20 A3001 RMK AO2 T02140198 10214 20179
KCFS 151135Z AUTO 00000KT 4SM BR CLR 20/20 A3002 RMK AO2 T02040195
KCFS 151115Z AUTO 00000KT 4SM BR CLR 20/19 A3002 RMK AO2 T01950187
KCFS 151055Z AUTO 00000KT 1SM BR VV007 19/18 A3002 RMK AO2 T01850178
KCFS 151035Z AUTO 00000KT 1/4SM FG VV002 18/17 A3002 RMK AO2 VIS M1/4V2 T01800173
KCFS 151015Z AUTO 00000KT 1SM BR VV007 19/18 A3002 RMK AO2 T01880181
KCFS 150955Z AUTO 00000KT 1SM BR VV007 19/18 A3002 RMK AO2 VIS 1/2V2 1/2 T01900183
KCFS 150935Z AUTO 00000KT 3/4SM BR VV005 19/18 A3002 RMK AO2 T01890181
KCFS 150915Z AUTO 00000KT 1SM BR VV007 19/18 A3003 RMK AO2 T01910181
KCFS 150855Z AUTO 00000KT 3/4SM BR VV005 20/19 A3003 RMK AO2 T01950188
KCFS 150835Z AUTO 00000KT 4SM BR CLR 19/19 A3003 RMK AO2 T01930186
KCFS 150815Z AUTO 00000KT 2SM BR CLR 20/19 A3003 RMK AO2 T01990190
KCFS 150755Z AUTO 00000KT 7SM SCT075 20/19 A3003 RMK AO2 T02020193
KCFS 150735Z AUTO 00000KT 5SM BR OVC075 20/19 A3003 RMK AO2 T01990191
KCFS 150715Z AUTO 00000KT 2SM BR OVC075 20/19 A3002 RMK AO2 T01980189
KCFS 150655Z AUTO 00000KT 2 1/2SM BR BKN075 20/19 A3002 RMK AO2 T01980190
KCFS 150635Z AUTO 00000KT 4SM BR CLR 20/19 A3001 RMK AO2 T01960187
KCFS 150615Z AUTO 00000KT 4SM BR CLR 20/19 A3002 RMK AO2 T02030193
KCFS 150555Z AUTO 00000KT 5SM BR CLR 21/20 A3002 RMK AO2 T02050195 10267 20198 402870181
KCFS 150535Z AUTO 00000KT 5SM BR CLR 20/19 A3002 RMK AO2 T02030192
KCFS 150515Z AUTO 00000KT 7SM CLR 21/20 A3002 RMK AO2 T02060196
KCFS 150455Z AUTO 00000KT 7SM CLR 21/20 A3003 RMK AO2 T02060196
KCFS 150435Z AUTO 00000KT 10SM CLR 21/20 A3003 RMK AO2 T02100199
KCFS 150415Z AUTO 00000KT 10SM SCT034 SCT040 22/20 A3003 RMK AO2 T02160199
KCFS 150355Z AUTO 00000KT 10SM CLR 22/20 A3003 RMK AO2 T02240202
KCFS 150335Z AUTO 00000KT 10SM CLR 22/20 A3003 RMK AO2 T02200202
KCFS 150315Z AUTO 23003KT 10SM CLR 22/20 A3003 RMK AO2 T02200200
KCFS 150255Z AUTO 00000KT 10SM CLR 23/20 A3003 RMK AO2 T02270201
KCFS 150235Z AUTO 00000KT 10SM CLR 23/20 A3003 RMK AO2 T02310201
KCFS 150215Z AUTO 23003KT 10SM SCT070 SCT090 23/20 A3003 RMK AO2 T02300199
KCFS 150155Z AUTO 22003KT 10SM SCT090 24/20 A3002 RMK AO2 T02350197
KCFS 150135Z AUTO 00000KT 10SM CLR 24/20 A3002 RMK AO2 T02380195
KCFS 150115Z AUTO 25003KT 10SM CLR 25/20 A3002 RMK AO2 T02480195
KCFS 150055Z AUTO 26003KT 10SM SCT026 SCT110 26/19 A3000 RMK AO2 T02590193
KCFS 150035Z AUTO 28004KT 10SM SCT026 SCT031 BKN110 27/21 A3000 RMK AO2 T02660206
KCFS 150015Z AUTO 23005KT 10SM SCT029 27/21 A2999 RMK AO2 T02670206
KCFS 142355Z AUTO 22007KT 10SM SCT120 27/21 A2998 RMK AO2 T02660206 10287 20266
KCFS 142335Z AUTO 22005KT 10SM BKN120 27/20 A2998 RMK AO2 T02700202
KCFS 142315Z AUTO 23003KT 10SM SCT090 BKN110 27/20 A2999 RMK AO2 T02700198
KCFS 142255Z AUTO 25005KT 10SM BKN110 27/20 A3000 RMK AO2 T02700196
KCFS 142235Z AUTO 24007KT 10SM SCT031 SCT037 BKN120 28/20 A3000 RMK AO2 T02750198
KCFS 142215Z AUTO 24004KT 10SM SCT031 28/20 A3000 RMK AO2 T02790202
KCFS 142155Z AUTO 26007KT 10SM CLR 28/20 A3001 RMK AO2 T02840200
KCFS 142135Z AUTO 24006KT 10SM CLR 28/20 A3002 RMK AO2 T02800200
KCFS 142115Z AUTO 26008KT 10SM CLR 28/20 A3002 RMK AO2 T02790200
KCFS 142055Z AUTO 24008KT 10SM SCT031 SCT035 SCT044 28/20 A3003 RMK AO2 T02810199
KCFS 142035Z AUTO 24005KT 10SM SCT031 BKN035 BKN041 28/21 A3003 RMK AO2 T02790206
KCFS 142015Z AUTO 24005KT 10SM SCT033 BKN080 OVC090 28/20 A3004 RMK AO2 T02780200
KCFS 141955Z AUTO 23007KT 10SM SCT033 SCT070 BKN080 28/20 A3004 RMK AO2 T02780202
KCFS 141935Z AUTO 22005KT 10SM OVC080 28/20 A3005 RMK AO2 T02750201
KCFS 141915Z AUTO 22008KT 10SM BKN090 OVC110 28/20 A3005 RMK AO2 T02750201
KCFS 141855Z AUTO 24008KT 10SM BKN090 BKN110 28/20 A3005 RMK AO2 T02760196
KCFS 141835Z AUTO 22008KT 10SM BKN100 28/20 A3005 RMK AO2 T02810203
KCFS 141815Z AUTO 24003KT 10SM OVC110 28/21 A3005 RMK AO2 T02770206
KCFS 141755Z AUTO 23005KT 10SM OVC110 27/20 A3005 RMK AO2 T02730203 10283 20205
KCFS 141735Z AUTO 00000KT 10SM SCT045 BKN110 27/20 A3006 RMK AO2 T02700199
KCFS 141715Z AUTO 00000KT 10SM SCT045 BKN100 BKN120 27/20 A3006 RMK AO2 T02670199
KCFS 141655Z AUTO 00000KT 10SM SCT110 27/20 A3005 RMK AO2 T02690196
KCFS 141635Z AUTO 00000KT 7SM SCT085 BKN110 27/21 A3005 RMK AO2 T02670205
KCFS 141615Z AUTO 00000KT 10SM SCT085 BKN110 25/20 A3005 RMK AO2 T02540198
KCFS 141555Z AUTO 23003KT 7SM SCT100 25/20 A3005 RMK AO2 T02480199
KCFS 141535Z AUTO 25003KT 7SM SCT090 24/20 A3005 RMK AO2 T02390197
KCFS 141515Z AUTO 00000KT 10SM SCT110 23/20 A3005 RMK AO2 T02330196
KCFS 141455Z AUTO 00000KT 7SM RA SCT030 SCT037 BKN110 23/20 A3005 RMK AO2 T02250196
KCFS 141435Z AUTO 25004KT 10SM -RA SCT120 23/19 A3007 RMK AO2 T02320193
KCFS 141415Z AUTO 23003KT 10SM CLR 23/19 A3007 RMK AO2 T02290192
KCFS 141355Z AUTO 23003KT 10SM CLR 23/19 A3006 RMK AO2 T02250188
KCFS 141335Z AUTO 00000KT 10SM -DZ SCT120 22/19 A3007 RMK AO2 T02220188
KCFS 141315Z AUTO 00000KT 10SM SCT120 22/19 A3007 RMK AO2 T02180190
KCFS 141255Z AUTO 00000KT 10SM SCT120 21/19 A3005 RMK AO2 T02120191
KCFS 141236Z AUTO 00000KT 10SM SCT120 21/19 A3005 RMK AO2 T02130188
KCFS 141216Z AUTO 00000KT 10SM CLR 21/19 A3005 RMK AO2 T02070185
KCFS 141155Z AUTO 00000KT 10SM CLR 21/19 A3003 RMK AO2 T02050187 10207 20181
KCFS 141135Z AUTO 00000KT 10SM CLR 21/19 A3004 RMK AO2 T02060191